Flight Track Log - Related Links

Times and Time Zones

All times are in EDT time to prevent confusion due to time zone crossing. See the DAL268 flight status page for this flight to view local times or setup timezone preferences in your user account.

Time Position Orientation Groundspeed Altitude Reporting Facility
EDT Latitude Longitude Course Direction KTS MPH feet Rate Location/Type
Sun 20:05:46 33.6333 -84.4667 64° Northeast 168 193 2,100  Level Atlanta TRACON
Sun 20:06:46 33.6167 -84.5333 253° West 243 280 3,700 2,200 Climbing Atlanta TRACON
Sun 20:07:46 33.5667 -84.5833 220° Southwest 280 322 6,500 2,393 Climbing Atlanta TRACON
Sun 20:08:00 33.8632 -84.1313 101° East  Level Estimated
Sun 20:09:00 33.8063 -84.0157 121° Southeast  Level FlightAware Approximate
Sun 20:09:44 33.4572 -84.4969 147° Southeast 272 313 10,800  Level Atlanta Center
Sun 20:10:00 33.7493 -83.9002 121° Southeast  Level FlightAware Approximate
Sun 20:10:44 33.4556 -84.3947 91° East 303 349 11,800  Level Atlanta Center
Sun 20:11:00 33.8261 -83.8028 64° Northeast  Level Estimated
Sun 20:11:44 33.4642 -84.2606 86° East 370 426 13,600  Level Atlanta Center
Sun 20:13:44 33.5731 -84.0039 63° Northeast 425 489 17,900 2,033 Climbing Atlanta Center
Sun 20:14:44 33.6167 -83.8642 69° East 437 503 19,700 1,850 Climbing Atlanta Center
Sun 20:15:44 33.6478 -83.7144 76° East 448 516 21,600 1,700 Climbing Atlanta Center
Sun 20:16:44 33.6911 -83.5644 71° East 460 529 23,100 1,750 Climbing Atlanta Center
Sun 20:17:44 33.7489 -83.4217 64° Northeast 465 535 25,100 1,600 Climbing Atlanta Center
Sun 20:18:44 33.8064 -83.2789 64° Northeast 475 547 26,300 1,300 Climbing Atlanta Center
Sun 20:19:44 33.8639 -83.1306 65° Northeast 475 547 27,700 1,350 Climbing Atlanta Center
Sun 20:20:44 33.9211 -82.9872 64° Northeast 475 547 29,000 650 Climbing Atlanta Center
Sun 20:21:44 33.9844 -82.8339 63° Northeast 470 541 29,000  Level Atlanta Center
Sun 20:22:44 34.0394 -82.6900 65° Northeast 470 541 29,000  Level Atlanta Center
Sun 20:23:44 34.0942 -82.5486 65° Northeast 461 531 29,000  Level Atlanta Center
Sun 20:24:44 34.1528 -82.4072 63° Northeast 461 531 29,000  Level Atlanta Center
Sun 20:25:44 34.2092 -82.2603 65° Northeast 461 531 29,000  Level Atlanta Center
Sun 20:26:44 34.2675 -82.1158 64° Northeast 466 536 29,000  Level Atlanta Center
Sun 20:27:44 34.3342 -81.9811 59° Northeast 466 536 29,000  Level Atlanta Center
Sun 20:28:44 34.4050 -81.8408 59° Northeast 472 543 29,000  Level Atlanta Center
Sun 20:29:44 34.4672 -81.7158 59° Northeast 477 549 29,000  Level Atlanta Center
Sun 20:30:44 34.5375 -81.5778 58° Northeast 477 549 29,000  Level Atlanta Center
Sun 20:31:44 34.6036 -81.4394 60° Northeast 477 549 29,000  Level Atlanta Center
Sun 20:32:44 34.6736 -81.3033 58° Northeast 477 549 29,000  Level Atlanta Center
Sun 20:33:44 34.7414 -81.1622 60° Northeast 478 550 29,000  Level Atlanta Center
Sun 20:34:44 34.8111 -81.0258 58° Northeast 478 550 29,000  Level Atlanta Center
Sun 20:35:44 34.8825 -80.8764 60° Northeast 473 544 29,000  Level Atlanta Center
Sun 20:36:44 34.9519 -80.7342 59° Northeast 478 550 29,000  Level Atlanta Center
Sun 20:37:44 35.0169 -80.5947 60° Northeast 478 550 29,000  Level Atlanta Center
Sun 20:39:54 35.1625 -80.2897 60° Northeast 469 540 29,000  Level Washington Center
Sun 20:40:56 35.2261 -80.1508 61° Northeast 469 540 29,000  Level Washington Center
Sun 20:41:54 35.2981 -80.0125 57° Northeast 470 541 29,000  Level Washington Center
Sun 20:42:55 35.3639 -79.8711 60° Northeast 470 541 29,000  Level Washington Center
Sun 20:43:54 35.4314 -79.7292 60° Northeast 470 541 29,000  Level Washington Center
Sun 20:44:55 35.4642 -79.5678 76° East 470 541 29,000  Level Washington Center
Sun 20:45:54 35.4697 -79.3947 88° East 480 552 29,000 -397 Level Washington Center
Sun 20:46:56 35.4792 -79.2267 86° East 495 570 28,200 -1,000 Descending Washington Center
Sun 20:47:54 35.5111 -79.0647 76° East 494 568 27,000 -605 Descending Washington Center
Sun 20:48:55 35.5656 -78.9064 67° East 484 557 27,000  Level Washington Center
Sun 20:49:55 35.6219 -78.7528 66° East 490 564 27,000  Level Washington Center
Sun 20:50:55 35.6761 -78.5964 67° East 495 570 27,000  Level Washington Center
Sun 20:51:55 35.7253 -78.4550 67° East 495 570 27,000  Level Washington Center
Sun 20:52:54 35.7792 -78.2956 67° East 490 564 27,000  Level Washington Center
Sun 20:53:54 35.8283 -78.1436 68° East 490 564 27,000  Level Washington Center
Sun 20:54:54 35.8839 -77.9839 67° East 490 564 27,000  Level Washington Center
Sun 20:55:54 35.9350 -77.8289 68° East 490 564 27,000  Level Washington Center
Sun 20:56:55 35.9939 -77.6742 65° Northeast 490 564 27,000  Level Washington Center
Sun 20:57:55 36.0756 -77.5450 52° Northeast 478 550 27,000  Level Washington Center
Sun 20:58:55 36.1547 -77.4158 53° Northeast 478 550 27,000  Level Washington Center
Sun 20:59:56 36.2422 -77.2736 53° Northeast 472 543 27,000  Level Washington Center
Sun 21:00:56 36.3214 -77.1414 53° Northeast 477 549 27,000  Level Washington Center
Sun 21:01:54 36.4000 -77.0114 53° Northeast 477 549 27,000  Level Washington Center
Sun 21:02:55 36.4744 -76.8911 52° Northeast 477 549 27,000  Level Washington Center
Sun 21:03:55 36.5614 -76.7478 53° Northeast 477 549 27,000  Level Washington Center
Sun 21:04:56 36.6253 -76.6039 61° Northeast 477 549 27,000  Level Washington Center
Sun 21:05:54 36.6539 -76.4333 78° East 488 562 27,000  Level Washington Center
Sun 21:06:55 36.7008 -76.2733 70° East 488 562 27,000  Level Washington Center
Sun 21:07:55 36.7931 -76.1858 37° Northeast 460 529 27,000  Level Washington Center
Sun 21:08:55 36.9058 -76.1139 27° Northeast 438 504 27,000  Level Washington Center
Sun 21:09:56 37.0397 -76.0497 21° North 470 541 27,000  Level Washington Center
Sun 21:10:56 37.1422 -75.9906 25° Northeast 460 529 27,000  Level Washington Center
Sun 21:11:54 37.2592 -75.9258 24° Northeast 455 524 27,000  Level Washington Center
Sun 21:12:54 37.3742 -75.8661 22° Northeast 450 518 27,000  Level Washington Center
Sun 21:13:56 37.4889 -75.8011 24° Northeast 450 518 27,000  Level Washington Center
Sun 21:14:54 37.6036 -75.7333 25° Northeast 445 512 27,000  Level Washington Center
Sun 21:15:56 37.7206 -75.6628 26° Northeast 445 512 27,000  Level Washington Center
Sun 21:16:54 37.8353 -75.5969 24° Northeast 445 512 27,000  Level Washington Center
Sun 21:17:54 37.9478 -75.5311 25° Northeast 445 512 27,000  Level Washington Center
Sun 21:18:56 38.0647 -75.4625 25° Northeast 445 512 27,000  Level Washington Center
Sun 21:19:55 38.1792 -75.3936 25° Northeast 445 512 27,000 -51 Level Washington Center
Sun 21:20:54 38.2897 -75.3272 25° Northeast 445 512 26,900  Descending Washington Center
Sun 21:21:54 38.3894 -75.2581 29° Northeast 426 490 27,000 49 Climbing Washington Center
Sun 21:22:56 38.4956 -75.1939 25° Northeast 416 479 27,000  Level Washington Center
Sun 21:23:54 38.5975 -75.1294 26° Northeast 405 466 27,000 -50 Level Washington Center
Sun 21:24:55 38.7036 -75.0650 25° Northeast 405 466 26,900 -50 Descending Washington Center
Sun 21:25:54 38.7972 -74.9978 29° Northeast 400 460 26,900 -756 Level Washington Center
Sun 21:26:54 38.8928 -74.9436 24° Northeast 389 448 25,400 -1,488 Descending Washington Center
Sun 21:27:55 38.9839 -74.8733 31° Northeast 378 435 23,900 -1,350 Descending Washington Center
Sun 21:28:54 39.0753 -74.8189 25° Northeast 373 429 22,700 -1,240 Descending Washington Center
Sun 21:29:56 39.1561 -74.7458 35° Northeast 366 421 21,400 -1,339 Descending Washington Center
Sun 21:30:55 39.2347 -74.6564 41° Northeast 356 410 20,000 -1,412 Descending Washington Center
Sun 21:31:55 39.3050 -74.5803 40° Northeast 349 402 18,600 -632 Descending Washington Center
Sun 21:34:05 39.4656 -74.4039 40° Northeast 344 396 18,000 -189 Descending New York Center
Sun 21:35:05 39.5389 -74.3214 41° Northeast 344 396 18,000  Level New York Center
Sun 21:36:05 39.6189 -74.2339 40° Northeast 339 390 18,000 -50 Level New York Center
Sun 21:37:05 39.6919 -74.1511 41° Northeast 345 397 17,900 -600 Descending New York Center
Sun 21:38:05 39.7567 -74.0814 40° Northeast 345 397 16,800 -1,300 Descending New York Center
Sun 21:39:05 39.8275 -74.0036 40° Northeast 345 397 15,300 -1,700 Descending New York Center
Sun 21:40:05 39.9086 -73.9397 31° Northeast 316 364 13,400 -1,500 Descending New York Center
Sun 21:41:05 39.9786 -73.8889 29° Northeast 298 343 12,300 -700 Descending New York Center
Sun 21:42:05 40.0317 -73.8533 27° Northeast 285 328 12,000 -150 Descending New York Center
Sun 21:43:05 40.0975 -73.8833 341° North 224 258 12,000 -150 Level New York Center
Sun 21:44:05 40.0744 -73.9744 252° West 173 199 11,700 -500 Descending New York Center
Sun 21:45:05 40.0086 -74.0175 207° Southwest 174 200 11,000 -350 Descending New York Center
Sun 21:46:05 39.9383 -73.9897 163° South 250 288 11,000  Level New York Center
Sun 21:47:05 39.9656 -73.9100 66° East 172 198 11,000  Level New York Center
Sun 21:48:05 40.0214 -73.8447 42° Northeast 233 268 11,000 -350 Level New York Center
Sun 21:49:05 40.0775 -73.7739 44° Northeast 248 285 10,300 -1,050 Descending New York Center
Sun 21:50:05 40.1183 -73.7214 45° Northeast 237 273 8,900 -1,150 Descending New York Center
Sun 21:51:05 40.1619 -73.6500 51° Northeast 232 267 8,000 -600 Descending New York Center
Sun 21:52:05 40.2075 -73.6572 353° North 179 206 7,700 -600 Descending New York Center
Sun 21:53:05 40.1931 -73.7356 256° West 104 120 6,800 -1,000 Descending New York Center
Sun 21:54:05 40.1456 -73.7172 164° South 116 133 5,700 -1,350 Descending New York Center
Sun 21:55:05 40.1806 -73.6589 52° Northeast 123 142 4,100 -1,481 Descending New York Center
Sun 21:55:22 40.2000 -73.6500 19° North 210 242 3,800 -857 Descending New York TRACON
Sun 21:56:22 40.2500 -73.6167 27° Northeast 206 237 3,000 -466 Descending New York TRACON
Sun 21:57:05 40.2861 -73.5981 21° North 198 228 3,000 -291 Level New York Center
Sun 21:58:05 40.3286 -73.5644 31° Northeast 203 234 2,500 -500 Descending New York Center
Sun 21:59:05 40.3839 -73.5231 30° Northeast 203 234 2,000 -361 Descending New York Center
Sun 21:59:28 40.4000 -73.5000 47° Northeast 203 234 2,000  Level New York TRACON
Sun 22:00:28 40.4500 -73.4667 27° Northeast 201 231 2,000  Level New York TRACON
Sun 22:01:28 40.5000 -73.4333 27° Northeast 189 217 2,000  Level New York TRACON
Sun 22:02:22 40.5333 -73.4333 360° North 166 191 2,000  Level New York TRACON
Sun 22:03:22 40.5333 -73.5000 270° West 165 190 2,000  Level New York TRACON
Sun 22:04:22 40.5500 -73.5500 294° West 162 186 2,000  Level New York TRACON
Sun 22:05:22 40.5667 -73.6000 294° West 163 188 2,000  Level New York TRACON

Login

Don't have an account? Register now (free) for customized features, flight alerts, and more!